Time;durP1;ratioP1;P1;durP2;ratioP2;P2;SDS_P1;SDS_P2;PMS_P1;PMS_P2;Temp;Humidity;BMP_temperature;BMP_pressure;BME280_temperature;BME280_humidity;BME280_pressure;Samples;Min_cycle;Max_cycle;Signal;HPM_P1;HPM_P2
2021/01/11 00:01:11;;;;;;;9.63;6.50;;;1.20;84.20;;;;;;5110469;27;20181;-80
2021/01/11 00:03:38;;;;;;;9.37;6.13;;;1.20;83.90;;;;;;5116641;27;20234;-80
2021/01/11 00:06:06;;;;;;;8.43;6.20;;;1.30;83.70;;;;;;5117802;28;20419;-80
2021/01/11 00:08:34;;;;;;;8.07;5.97;;;1.30;83.90;;;;;;5111771;28;20229;-82
2021/01/11 00:11:02;;;;;;;9.60;6.43;;;1.20;83.90;;;;;;5117072;28;20260;-80
2021/01/11 00:13:29;;;;;;;9.57;6.17;;;1.20;83.80;;;;;;5099024;28;20222;-80
2021/01/11 00:15:57;;;;;;;8.17;5.87;;;1.20;83.90;;;;;;5094079;27;20196;-79
2021/01/11 00:18:24;;;;;;;7.90;5.87;;;1.10;83.70;;;;;;5104811;27;20222;-79
2021/01/11 00:20:52;;;;;;;9.53;6.27;;;1.10;83.50;;;;;;5090273;27;21057;-81
2021/01/11 00:23:19;;;;;;;8.97;6.27;;;1.10;83.40;;;;;;5093634;28;20204;-79
2021/01/11 00:25:48;;;;;;;8.13;5.67;;;1.10;83.60;;;;;;5093464;28;20203;-80
2021/01/11 00:28:18;;;;;;;8.50;5.90;;;1.20;83.60;;;;;;5089608;28;20459;-79
2021/01/11 00:30:46;;;;;;;8.43;5.90;;;1.20;83.50;;;;;;5100094;28;20203;-81
2021/01/11 00:33:13;;;;;;;9.13;6.97;;;1.20;83.30;;;;;;5091859;27;20358;-80
2021/01/11 00:35:41;;;;;;;8.83;6.33;;;1.20;83.40;;;;;;5083138;28;20216;-80
2021/01/11 00:38:08;;;;;;;8.80;6.53;;;1.20;83.30;;;;;;5112701;28;20195;-79
2021/01/11 00:40:36;;;;;;;9.00;6.73;;;1.20;83.20;;;;;;5105284;27;20288;-80
2021/01/11 00:43:05;;;;;;;8.57;6.17;;;1.20;83.10;;;;;;5117313;28;20437;-81
2021/01/11 00:45:32;;;;;;;10.17;6.63;;;1.20;82.90;;;;;;5102465;27;20280;-80
2021/01/11 00:48:00;;;;;;;8.60;6.60;;;1.30;82.90;;;;;;5088552;28;20638;-79
2021/01/11 00:50:27;;;;;;;8.27;5.90;;;1.30;82.90;;;;;;5116660;28;20203;-79
2021/01/11 00:52:54;;;;;;;11.40;6.50;;;1.30;82.90;;;;;;5098796;27;20197;-79
2021/01/11 00:55:22;;;;;;;9.70;6.90;;;1.30;83.00;;;;;;5083972;28;20197;-79
2021/01/11 00:57:49;;;;;;;9.20;6.87;;;1.20;83.20;;;;;;5093456;28;20226;-81
2021/01/11 01:00:21;;;;;;;10.17;7.40;;;1.20;83.10;;;;;;5095241;28;20566;-81
2021/01/11 01:02:48;;;;;;;10.47;7.93;;;1.20;83.10;;;;;;5102945;28;20229;-80
2021/01/11 01:05:16;;;;;;;11.00;8.20;;;1.20;83.20;;;;;;5116170;28;20200;-80
2021/01/11 01:07:45;;;;;;;12.93;8.10;;;1.20;83.40;;;;;;5111293;27;20214;-83
2021/01/11 01:10:13;;;;;;;11.63;8.07;;;1.20;83.50;;;;;;5123649;28;20176;-80
2021/01/11 01:12:41;;;;;;;11.87;8.40;;;1.20;83.30;;;;;;5109988;28;20406;-83
2021/01/11 01:15:11;;;;;;;12.47;8.93;;;1.10;83.60;;;;;;5108245;28;20296;-81
2021/01/11 01:17:41;;;;;;;12.53;9.30;;;1.20;83.70;;;;;;5117149;28;20195;-81
2021/01/11 01:20:15;;;;;;;15.13;9.37;;;1.10;83.60;;;;;;5114607;27;20258;-80
2021/01/11 01:22:46;;;;;;;11.87;8.53;;;1.10;83.60;;;;;;5113551;28;20208;-80
2021/01/11 01:25:14;;;;;;;14.27;9.93;;;1.20;84.00;;;;;;5125172;27;20180;-80
2021/01/11 01:27:42;;;;;;;15.07;10.20;;;1.20;83.50;;;;;;5111529;28;20196;-81
2021/01/11 01:30:11;;;;;;;13.27;8.67;;;1.10;83.40;;;;;;5116062;28;20409;-81
2021/01/11 01:32:39;;;;;;;15.23;10.53;;;1.30;83.50;;;;;;5113013;28;20581;-81
2021/01/11 01:35:11;;;;;;;16.23;9.97;;;1.20;83.60;;;;;;5110850;28;20185;-80
2021/01/11 01:37:40;;;;;;;14.33;9.97;;;1.20;83.90;;;;;;5120920;28;20181;-81
2021/01/11 01:40:09;;;;;;;15.03;10.43;;;1.20;83.90;;;;;;5112065;28;20285;-80
2021/01/11 01:42:37;;;;;;;14.67;10.73;;;1.20;84.00;;;;;;5110991;28;20200;-79
2021/01/11 01:45:06;;;;;;;16.87;11.40;;;1.20;84.10;;;;;;5117455;27;20196;-78
2021/01/11 01:47:34;;;;;;;15.30;10.47;;;1.10;84.40;;;;;;5106263;27;20707;-80
2021/01/11 01:50:04;;;;;;;17.30;11.63;;;1.10;84.30;;;;;;5114456;28;20202;-81
2021/01/11 01:52:33;;;;;;;20.30;11.83;;;1.10;84.40;;;;;;5108474;28;20312;-81
2021/01/11 01:55:01;;;;;;;19.10;12.07;;;1.10;84.30;;;;;;5100988;28;20290;-81
2021/01/11 01:57:29;;;;;;;17.93;12.73;;;1.20;84.50;;;;;;5099099;28;20215;-80
2021/01/11 01:59:57;;;;;;;21.30;12.17;;;1.10;84.50;;;;;;5087740;28;20743;-81
2021/01/11 02:02:24;;;;;;;19.03;12.27;;;1.00;84.50;;;;;;5089013;28;20364;-79
2021/01/11 02:04:52;;;;;;;17.80;12.23;;;1.00;84.70;;;;;;5117731;27;20460;-83
2021/01/11 02:07:28;;;;;;;21.87;14.00;;;1.10;84.80;;;;;;5119059;28;20377;-79
2021/01/11 02:10:05;;;;;;;21.47;13.73;;;1.00;84.80;;;;;;5098357;27;20299;-80
2021/01/11 02:12:47;;;;;;;22.13;14.33;;;1.10;84.70;;;;;;5106015;28;20531;-80
2021/01/11 02:15:20;;;;;;;24.87;14.43;;;1.10;84.90;;;;;;5112599;28;20220;-80
2021/01/11 02:17:53;;;;;;;25.30;15.07;;;1.10;85.00;;;;;;5121661;28;20255;-80
2021/01/11 02:21:03;;;;;;;23.43;14.37;;;1.10;85.00;;;;;;5120779;28;20567;-81
2021/01/11 02:24:19;;;;;;;22.13;14.83;;;1.10;84.90;;;;;;5121628;28;20223;-80
2021/01/11 02:27:20;;;;;;;27.40;15.33;;;1.10;85.20;;;;;;5119654;28;20628;-81
2021/01/11 02:30:09;;;;;;;27.03;15.70;;;1.00;85.30;;;;;;5118725;28;20200;-81
2021/01/11 02:32:41;;;;;;;26.57;16.13;;;1.10;85.40;;;;;;5119778;28;20284;-81
2021/01/11 02:35:12;;;;;;;24.50;16.03;;;1.00;85.50;;;;;;5116727;28;20294;-80
2021/01/11 02:37:41;;;;;;;23.67;15.50;;;1.00;85.40;;;;;;5122778;28;20186;-80
2021/01/11 02:40:10;;;;;;;26.47;15.73;;;0.90;85.50;;;;;;5120667;28;20228;-81
2021/01/11 02:42:38;;;;;;;28.03;17.63;;;1.00;85.70;;;;;;5115499;28;20180;-81
2021/01/11 02:45:09;;;;;;;29.77;17.17;;;1.00;85.70;;;;;;5123763;27;20290;-80
2021/01/11 02:47:57;;;;;;;27.87;16.33;;;1.00;86.00;;;;;;5108470;28;20207;-81
2021/01/11 02:50:26;;;;;;;26.60;16.40;;;0.90;86.10;;;;;;5120629;28;20263;-80
2021/01/11 02:53:06;;;;;;;27.13;17.07;;;1.00;85.90;;;;;;5121999;27;20206;-82
2021/01/11 02:55:47;;;;;;;25.53;16.17;;;1.00;86.00;;;;;;5100655;28;20297;-79
2021/01/11 02:58:24;;;;;;;28.17;16.37;;;1.00;86.10;;;;;;5117329;28;20505;-81
2021/01/11 03:00:54;;;;;;;28.43;17.13;;;0.90;86.10;;;;;;5114511;27;20216;-81
2021/01/11 03:03:25;;;;;;;26.43;16.57;;;0.90;86.40;;;;;;5117606;28;20181;-81
2021/01/11 03:05:53;;;;;;;26.43;16.20;;;0.90;86.40;;;;;;5121678;28;20465;-81
2021/01/11 03:08:23;;;;;;;25.27;16.60;;;0.90;86.70;;;;;;5107939;28;20201;-80
2021/01/11 03:10:51;;;;;;;26.20;16.43;;;0.80;86.50;;;;;;5121126;28;20207;-81
2021/01/11 03:13:19;;;;;;;25.67;17.27;;;0.90;86.40;;;;;;5095290;28;20672;-79
2021/01/11 03:15:47;;;;;;;24.80;16.17;;;0.70;86.40;;;;;;5086579;27;20237;-79
2021/01/11 03:18:15;;;;;;;28.77;16.77;;;0.80;86.50;;;;;;5093814;27;20302;-80
2021/01/11 03:20:43;;;;;;;28.80;16.97;;;0.90;86.70;;;;;;5104365;27;20213;-79
2021/01/11 03:23:10;;;;;;;30.73;18.43;;;0.90;86.70;;;;;;5092588;28;20562;-80
2021/01/11 03:25:40;;;;;;;28.03;17.70;;;0.90;86.60;;;;;;5092895;28;20529;-81
2021/01/11 03:28:08;;;;;;;25.63;16.67;;;0.90;86.60;;;;;;5082399;28;20558;-81
2021/01/11 03:30:35;;;;;;;24.57;16.03;;;0.90;86.70;;;;;;5095046;28;20196;-80
2021/01/11 03:33:02;;;;;;;25.20;17.30;;;0.80;86.70;;;;;;5089600;28;20693;-79
2021/01/11 03:35:31;;;;;;;30.90;17.77;;;0.90;86.50;;;;;;5080907;28;20475;-79
2021/01/11 03:37:59;;;;;;;28.43;17.13;;;0.90;86.50;;;;;;5096939;28;20278;-80
2021/01/11 03:40:26;;;;;;;26.67;16.40;;;0.90;86.50;;;;;;5088222;28;20227;-80
2021/01/11 03:42:54;;;;;;;27.70;16.53;;;0.90;86.50;;;;;;5089992;28;20621;-81
2021/01/11 03:45:21;;;;;;;26.50;17.20;;;0.90;86.30;;;;;;5105974;27;20202;-81
2021/01/11 03:47:49;;;;;;;25.13;16.20;;;0.90;86.20;;;;;;5092981;27;20243;-80
2021/01/11 03:50:16;;;;;;;25.90;16.57;;;0.90;86.10;;;;;;5091230;28;20204;-80
2021/01/11 03:52:45;;;;;;;27.03;16.13;;;0.90;86.10;;;;;;5095444;28;20684;-80
2021/01/11 03:55:13;;;;;;;24.23;15.37;;;0.90;86.00;;;;;;5085846;28;20398;-80
2021/01/11 03:57:41;;;;;;;24.60;16.57;;;1.00;86.10;;;;;;5092219;28;20981;-80
2021/01/11 04:00:09;;;;;;;26.97;15.93;;;0.90;86.00;;;;;;5088823;28;20581;-80
2021/01/11 04:02:36;;;;;;;27.70;17.73;;;0.90;86.10;;;;;;5086029;28;20499;-80
2021/01/11 04:05:05;;;;;;;27.03;16.67;;;0.90;85.90;;;;;;5106623;27;20180;-80
2021/01/11 04:07:32;;;;;;;27.33;17.10;;;0.90;86.10;;;;;;5103059;28;20207;-78
2021/01/11 04:10:01;;;;;;;25.40;15.83;;;0.90;86.10;;;;;;5113406;28;20219;-80
2021/01/11 04:12:29;;;;;;;24.03;15.20;;;0.90;86.20;;;;;;5096796;27;20693;-79
2021/01/11 04:14:57;;;;;;;23.77;16.27;;;0.80;86.50;;;;;;5087325;27;20212;-84
2021/01/11 04:17:24;;;;;;;22.77;15.93;;;0.90;86.50;;;;;;5088279;28;20225;-80
2021/01/11 04:19:52;;;;;;;27.27;15.53;;;0.80;86.40;;;;;;5087387;28;20229;-81
2021/01/11 04:22:19;;;;;;;24.93;15.70;;;0.80;86.30;;;;;;5084729;28;20199;-80
2021/01/11 04:24:46;;;;;;;25.40;16.03;;;0.80;86.10;;;;;;5093548;27;20273;-80
2021/01/11 04:27:15;;;;;;;24.27;16.17;;;1.00;86.10;;;;;;5083441;28;20208;-80
2021/01/11 04:29:42;;;;;;;21.60;15.13;;;0.80;86.10;;;;;;5089121;28;20218;-79
2021/01/11 04:32:10;;;;;;;21.50;15.20;;;0.80;86.00;;;;;;5094299;27;20196;-79
2021/01/11 04:34:38;;;;;;;26.43;15.53;;;0.90;86.10;;;;;;5089258;27;20207;-80
2021/01/11 04:37:07;;;;;;;23.67;15.80;;;0.80;85.90;;;;;;5087171;28;20530;-80
2021/01/11 04:39:35;;;;;;;22.87;15.33;;;0.80;85.80;;;;;;5102757;27;20543;-80
2021/01/11 04:42:05;;;;;;;23.27;15.47;;;0.80;86.00;;;;;;5086063;28;20257;-81
2021/01/11 04:44:36;;;;;;;23.60;15.00;;;0.80;85.70;;;;;;5095296;27;20208;-78
2021/01/11 04:47:04;;;;;;;22.63;14.40;;;0.80;85.90;;;;;;5091416;27;20208;-81
2021/01/11 04:49:34;;;;;;;25.47;15.00;;;0.90;86.10;;;;;;5097479;27;20200;-79
2021/01/11 04:52:02;;;;;;;23.40;15.70;;;0.80;85.90;;;;;;5099050;27;20200;-82
2021/01/11 04:54:31;;;;;;;25.30;15.90;;;0.90;86.00;;;;;;5090762;28;20205;-79
2021/01/11 04:57:01;;;;;;;26.57;15.77;;;0.90;86.00;;;;;;5094701;28;20196;-79
2021/01/11 04:59:33;;;;;;;25.40;15.70;;;0.80;85.90;;;;;;5098107;27;20334;-80
2021/01/11 05:02:02;;;;;;;23.67;15.50;;;0.80;86.00;;;;;;5088726;28;20199;-80
2021/01/11 05:04:30;;;;;;;22.33;15.53;;;0.80;86.00;;;;;;5098552;28;20300;-79
2021/01/11 05:07:03;;;;;;;22.50;15.70;;;0.80;86.00;;;;;;5087760;28;20199;-81
2021/01/11 05:09:30;;;;;;;22.63;15.40;;;0.80;86.20;;;;;;5109861;28;20200;-80
2021/01/11 05:11:59;;;;;;;22.97;15.43;;;0.90;86.20;;;;;;5119990;28;20210;-79
2021/01/11 05:14:28;;;;;;;23.53;14.80;;;0.80;86.10;;;;;;5108302;28;20494;-81
2021/01/11 05:17:04;;;;;;;22.77;14.30;;;0.90;86.00;;;;;;5113048;28;20176;-80
2021/01/11 05:19:32;;;;;;;23.23;15.50;;;0.90;85.90;;;;;;5108944;28;20282;-80
2021/01/11 05:22:00;;;;;;;26.03;15.53;;;0.90;86.00;;;;;;5110594;28;20195;-80
2021/01/11 05:24:31;;;;;;;24.40;15.87;;;0.90;85.90;;;;;;5113504;28;20187;-80
2021/01/11 05:27:01;;;;;;;21.37;14.23;;;0.90;85.80;;;;;;5115070;28;20196;-81
2021/01/11 05:29:29;;;;;;;23.50;14.23;;;0.90;85.60;;;;;;5112591;27;20259;-80
2021/01/11 05:31:58;;;;;;;21.93;14.47;;;0.90;85.90;;;;;;5108276;28;21342;-80
2021/01/11 05:34:45;;;;;;;23.77;15.77;;;0.80;85.80;;;;;;5117161;28;20187;-81
2021/01/11 05:37:31;;;;;;;24.70;14.97;;;0.80;85.80;;;;;;5123117;27;20191;-81
2021/01/11 05:40:08;;;;;;;25.13;15.77;;;0.70;86.00;;;;;;5105937;28;20537;-81
2021/01/11 05:42:38;;;;;;;26.57;16.03;;;0.60;86.20;;;;;;5121351;28;20184;-81
2021/01/11 05:45:16;;;;;;;26.07;16.90;;;0.50;86.30;;;;;;5113966;28;20188;-80
2021/01/11 05:48:11;;;;;;;27.37;17.10;;;0.40;86.80;;;;;;5117302;28;20229;-82
2021/01/11 05:50:41;;;;;;;25.80;16.30;;;0.30;87.10;;;;;;5112092;28;20203;-81
2021/01/11 05:53:20;;;;;;;26.27;16.37;;;0.30;87.40;;;;;;5106812;28;20215;-83
2021/01/11 05:55:48;;;;;;;27.77;17.37;;;0.10;87.40;;;;;;5106584;28;20256;-80
2021/01/11 05:58:18;;;;;;;24.73;16.10;;;0.00;87.60;;;;;;5102896;28;20463;-83
2021/01/11 06:00:46;;;;;;;26.67;17.57;;;0.10;88.40;;;;;;5117188;28;20610;-79
2021/01/11 06:03:15;;;;;;;24.70;16.83;;;0.00;88.20;;;;;;5106354;28;20217;-81
2021/01/11 06:05:44;;;;;;;27.53;16.77;;;-0.10;88.20;;;;;;5112219;28;20197;-81
2021/01/11 06:08:13;;;;;;;29.30;18.33;;;0.00;88.60;;;;;;5098660;28;20263;-82
2021/01/11 06:10:43;;;;;;;28.13;16.83;;;0.00;88.70;;;;;;5092287;28;20224;-81
2021/01/11 06:13:13;;;;;;;27.10;17.37;;;0.10;88.80;;;;;;5090132;28;20210;-81
2021/01/11 06:15:43;;;;;;;29.47;18.10;;;-0.10;88.80;;;;;;5082258;28;20597;-80
2021/01/11 06:18:24;;;;;;;29.40;16.90;;;-0.10;89.00;;;;;;5093993;28;20205;-79
2021/01/11 06:20:52;;;;;;;29.33;17.17;;;-0.20;88.70;;;;;;5092724;27;20234;-79
2021/01/11 06:23:29;;;;;;;31.30;17.43;;;-0.20;89.10;;;;;;5084436;28;20202;-80
2021/01/11 06:25:57;;;;;;;28.40;17.73;;;-0.30;89.30;;;;;;5091356;27;20433;-79
2021/01/11 06:28:31;;;;;;;29.37;17.73;;;-0.50;89.30;;;;;;5081657;28;20202;-81
2021/01/11 06:31:11;;;;;;;29.20;19.03;;;-0.40;89.60;;;;;;5089785;28;20258;-81
2021/01/11 06:33:40;;;;;;;32.57;18.87;;;-0.40;89.60;;;;;;5075738;28;20624;-79
2021/01/11 06:36:29;;;;;;;30.57;18.53;;;-0.40;90.00;;;;;;5089689;28;20229;-79
2021/01/11 06:39:05;;;;;;;29.37;18.50;;;-0.70;90.00;;;;;;5096760;28;20279;-80
2021/01/11 06:41:34;;;;;;;30.90;18.33;;;-0.50;90.00;;;;;;5086472;28;20288;-82
2021/01/11 06:44:06;;;;;;;27.97;18.27;;;-0.50;90.30;;;;;;5089194;28;20213;-82
2021/01/11 06:46:44;;;;;;;28.13;17.97;;;-0.50;90.20;;;;;;5083066;28;20209;-81
2021/01/11 06:49:25;;;;;;;31.90;18.90;;;-0.60;90.20;;;;;;5094660;27;20288;-81
2021/01/11 06:52:07;;;;;;;32.13;18.93;;;-0.70;90.30;;;;;;5090490;27;20326;-82
2021/01/11 06:54:38;;;;;;;31.97;18.57;;;-0.50;90.50;;;;;;5082423;27;20290;-80
2021/01/11 06:57:13;;;;;;;31.87;19.57;;;-0.60;90.40;;;;;;5089847;28;20392;-80
2021/01/11 06:59:41;;;;;;;34.30;19.90;;;-0.60;90.40;;;;;;5094940;28;20471;-79
2021/01/11 07:02:23;;;;;;;34.87;20.37;;;-0.60;90.40;;;;;;5098978;27;20185;-80
2021/01/11 07:04:52;;;;;;;32.83;19.63;;;-0.60;90.50;;;;;;5094324;27;20261;-81
2021/01/11 07:07:26;;;;;;;33.67;20.13;;;-0.60;90.60;;;;;;5082506;28;20867;-81
2021/01/11 07:09:58;;;;;;;36.83;21.47;;;-0.30;90.80;;;;;;5085178;28;20201;-80
2021/01/11 07:12:28;;;;;;;36.10;21.70;;;-0.40;90.60;;;;;;5094145;28;20774;-81
2021/01/11 07:14:58;;;;;;;36.37;22.47;;;-0.50;90.70;;;;;;5084040;27;20292;-82
2021/01/11 07:17:42;;;;;;;38.60;21.93;;;-0.40;90.70;;;;;;5075982;28;20556;-80
2021/01/11 07:20:11;;;;;;;32.23;20.57;;;-0.40;90.70;;;;;;5081223;28;20312;-81
2021/01/11 07:22:41;;;;;;;40.60;22.07;;;-0.50;90.60;;;;;;5080989;28;20209;-81
2021/01/11 07:25:18;;;;;;;38.67;21.77;;;-0.30;90.70;;;;;;5084962;28;20416;-81
2021/01/11 07:27:46;;;;;;;36.30;21.80;;;-0.30;90.60;;;;;;5086768;27;20215;-81
2021/01/11 07:30:18;;;;;;;34.87;22.03;;;-0.20;90.60;;;;;;5083273;28;20208;-82
2021/01/11 07:32:45;;;;;;;39.40;22.43;;;0.00;90.60;;;;;;5077798;27;20600;-81
2021/01/11 07:35:13;;;;;;;41.07;22.60;;;-0.10;90.50;;;;;;5078715;28;20248;-82
2021/01/11 07:37:42;;;;;;;39.30;22.17;;;0.00;90.50;;;;;;5082709;28;20195;-80
2021/01/11 07:40:11;;;;;;;35.70;21.50;;;0.00;90.50;;;;;;5084929;28;20231;-83
2021/01/11 07:42:39;;;;;;;37.30;22.20;;;0.00;90.40;;;;;;5067565;27;20214;-82
2021/01/11 07:45:09;;;;;;;39.70;22.53;;;0.00;90.50;;;;;;5080157;27;20291;-81
2021/01/11 07:47:37;;;;;;;41.13;23.43;;;0.10;90.50;;;;;;5076749;28;20203;-80
2021/01/11 07:50:07;;;;;;;40.80;22.63;;;0.10;90.40;;;;;;5078467;28;20227;-79
2021/01/11 07:52:34;;;;;;;37.60;23.27;;;0.10;90.40;;;;;;5075377;28;20707;-82
2021/01/11 07:55:05;;;;;;;42.57;23.07;;;0.20;90.40;;;;;;5072605;28;20209;-80
2021/01/11 07:57:33;;;;;;;44.97;24.83;;;0.20;90.40;;;;;;5075326;27;20641;-81
2021/01/11 08:00:04;;;;;;;43.73;22.70;;;0.30;90.40;;;;;;5069864;28;20697;-79
2021/01/11 08:02:33;;;;;;;41.33;23.67;;;0.30;90.30;;;;;;5072989;28;20376;-81
2021/01/11 08:05:01;;;;;;;44.43;23.90;;;0.40;90.20;;;;;;5079472;28;20211;-80
2021/01/11 08:07:30;;;;;;;40.10;23.23;;;0.40;90.20;;;;;;5076968;28;20202;-81
2021/01/11 08:09:59;;;;;;;41.13;23.37;;;0.50;90.10;;;;;;5080319;27;20731;-81
2021/01/11 08:12:29;;;;;;;39.93;22.60;;;0.50;90.10;;;;;;5078069;27;20309;-81
2021/01/11 08:15:07;;;;;;;41.67;24.93;;;0.50;90.10;;;;;;5068288;27;20324;-80
2021/01/11 08:17:42;;;;;;;44.37;23.50;;;0.60;90.10;;;;;;5075624;28;20773;-81
2021/01/11 08:20:10;;;;;;;38.70;23.10;;;0.60;90.10;;;;;;5071467;28;20992;-81
2021/01/11 08:22:38;;;;;;;44.17;24.23;;;0.60;90.00;;;;;;5075528;27;20201;-82
2021/01/11 08:25:08;;;;;;;41.53;24.77;;;0.60;90.00;;;;;;5083875;28;20200;-81
2021/01/11 08:27:43;;;;;;;39.03;24.23;;;0.70;90.10;;;;;;5102916;28;20761;-82
2021/01/11 08:30:16;;;;;;;45.03;23.80;;;0.70;90.10;;;;;;5094509;28;20311;-81
2021/01/11 08:32:44;;;;;;;42.37;24.33;;;0.70;90.10;;;;;;5077409;28;20277;-82
2021/01/11 08:35:17;;;;;;;41.53;24.30;;;0.70;90.10;;;;;;5076395;28;20238;-80
2021/01/11 08:37:44;;;;;;;46.00;25.63;;;0.70;90.10;;;;;;5075168;28;20223;-82
2021/01/11 08:40:17;;;;;;;48.50;25.67;;;0.70;90.20;;;;;;5073160;28;20281;-80
2021/01/11 08:42:47;;;;;;;44.90;25.33;;;0.70;90.20;;;;;;5076073;27;20250;-80
2021/01/11 08:45:29;;;;;;;41.57;23.20;;;0.70;90.20;;;;;;5073645;28;20899;-81
2021/01/11 08:48:01;;;;;;;44.87;24.47;;;0.70;90.20;;;;;;5075203;28;20195;-82
2021/01/11 08:50:30;;;;;;;45.23;24.33;;;0.70;90.20;;;;;;5081167;28;20210;-81
2021/01/11 08:52:58;;;;;;;45.27;24.53;;;0.70;90.20;;;;;;5081466;27;20221;-81
2021/01/11 08:55:26;;;;;;;43.33;25.23;;;0.70;90.30;;;;;;5088635;27;20467;-79
2021/01/11 08:58:01;;;;;;;44.70;25.00;;;0.70;90.30;;;;;;5103296;27;20267;-83
2021/01/11 09:00:28;;;;;;;45.07;25.20;;;0.70;90.30;;;;;;5073146;28;20518;-81
2021/01/11 09:02:56;;;;;;;44.93;25.57;;;0.70;90.30;;;;;;5068047;27;20285;-81
2021/01/11 09:05:26;;;;;;;42.30;23.47;;;0.70;90.30;;;;;;5091480;28;20225;-81
2021/01/11 09:07:54;;;;;;;41.70;24.10;;;0.80;90.30;;;;;;5084986;28;20249;-80
2021/01/11 09:10:30;;;;;;;43.07;24.37;;;0.80;90.20;;;;;;5082553;28;20314;-81
2021/01/11 09:13:17;;;;;;;43.10;23.13;;;0.90;90.20;;;;;;5088236;27;20199;-81
2021/01/11 09:15:45;;;;;;;41.90;23.80;;;1.00;90.10;;;;;;5087497;28;20199;-81
2021/01/11 09:18:14;;;;;;;41.20;22.53;;;1.00;90.00;;;;;;5079061;28;20215;-81
2021/01/11 09:20:43;;;;;;;43.87;23.67;;;1.00;89.70;;;;;;5081624;28;20732;-83
2021/01/11 09:23:12;;;;;;;39.07;22.63;;;1.10;89.70;;;;;;5072500;28;20208;-81
2021/01/11 09:25:39;;;;;;;40.97;23.07;;;1.30;89.70;;;;;;5078881;28;20204;-80
2021/01/11 09:28:09;;;;;;;41.93;23.33;;;1.20;89.50;;;;;;5076751;28;20459;-81
2021/01/11 09:30:38;;;;;;;37.40;20.90;;;1.20;89.30;;;;;;5081648;28;20203;-81
2021/01/11 09:33:05;;;;;;;38.63;21.70;;;1.30;89.00;;;;;;5080484;28;20729;-81
2021/01/11 09:35:34;;;;;;;40.23;21.80;;;1.30;88.70;;;;;;5086519;28;20200;-81
2021/01/11 09:38:01;;;;;;;36.23;20.37;;;1.30;88.80;;;;;;5099063;28;20205;-83
2021/01/11 09:40:31;;;;;;;36.03;21.17;;;1.30;88.60;;;;;;5099344;27;20223;-81
2021/01/11 09:42:59;;;;;;;40.07;21.50;;;1.40;88.70;;;;;;5088366;27;20551;-81
2021/01/11 09:45:26;;;;;;;36.33;20.23;;;1.40;88.40;;;;;;5076467;28;20273;-82
2021/01/11 09:47:55;;;;;;;33.00;20.07;;;1.50;88.30;;;;;;5079749;28;20243;-82
2021/01/11 09:50:23;;;;;;;36.43;20.13;;;1.40;88.00;;;;;;5072257;28;20661;-82
2021/01/11 09:52:53;;;;;;;34.10;19.67;;;1.40;88.10;;;;;;5097133;28;20245;-82
2021/01/11 09:55:21;;;;;;;33.87;18.80;;;1.50;88.20;;;;;;5099411;27;20190;-81
2021/01/11 09:57:49;;;;;;;35.47;19.37;;;1.50;87.90;;;;;;5094347;28;20204;-79
2021/01/11 10:00:18;;;;;;;36.63;20.97;;;1.50;87.70;;;;;;5096720;27;20243;-81
2021/01/11 10:02:49;;;;;;;34.83;21.07;;;1.50;87.60;;;;;;5091547;28;20206;-80
2021/01/11 10:05:20;;;;;;;35.07;19.53;;;1.50;87.90;;;;;;5092838;28;20192;-81
2021/01/11 10:07:48;;;;;;;30.87;18.57;;;1.50;87.70;;;;;;5096952;28;20444;-80
2021/01/11 10:10:15;;;;;;;30.97;17.00;;;1.50;87.40;;;;;;5071749;28;20272;-81
2021/01/11 10:12:43;;;;;;;35.03;19.43;;;1.70;87.10;;;;;;5073312;28;20906;-82
2021/01/11 10:15:11;;;;;;;33.63;18.00;;;1.60;87.00;;;;;;5081843;28;20207;-82
2021/01/11 10:17:39;;;;;;;33.10;18.17;;;1.60;87.20;;;;;;5089672;28;20303;-82
2021/01/11 10:20:10;;;;;;;34.10;18.27;;;1.60;87.10;;;;;;5075492;28;21163;-81
2021/01/11 10:22:39;;;;;;;29.47;17.03;;;1.70;86.90;;;;;;5072727;28;20558;-82
2021/01/11 10:25:08;;;;;;;27.67;17.17;;;1.70;86.70;;;;;;5079896;28;20320;-81
2021/01/11 10:27:36;;;;;;;31.70;17.30;;;1.80;86.70;;;;;;5070986;27;20209;-81
2021/01/11 10:30:05;;;;;;;30.70;16.93;;;1.80;86.30;;;;;;5088829;28;20205;-82
2021/01/11 10:32:32;;;;;;;27.67;16.63;;;1.90;86.20;;;;;;5080428;28;20438;-82
2021/01/11 10:35:00;;;;;;;31.50;16.23;;;2.00;86.20;;;;;;5085198;27;20807;-82
2021/01/11 10:37:28;;;;;;;29.93;17.57;;;1.90;85.90;;;;;;5085207;28;20840;-80
2021/01/11 10:39:57;;;;;;;30.20;16.93;;;2.00;86.00;;;;;;5074836;28;20782;-81
2021/01/11 10:42:27;;;;;;;29.23;16.60;;;2.00;85.80;;;;;;5081531;27;20223;-80
2021/01/11 10:44:55;;;;;;;29.73;17.67;;;2.10;85.80;;;;;;5083356;28;20685;-79
2021/01/11 10:47:23;;;;;;;26.87;15.77;;;2.10;85.60;;;;;;5082026;28;20202;-79
2021/01/11 10:49:51;;;;;;;32.53;16.13;;;2.10;85.30;;;;;;5080400;28;20204;-79
2021/01/11 10:52:18;;;;;;;28.87;16.83;;;2.10;85.10;;;;;;5075428;28;20309;-80
2021/01/11 10:54:46;;;;;;;30.50;16.13;;;2.20;85.10;;;;;;5091976;28;20204;-81
2021/01/11 10:57:15;;;;;;;26.83;16.00;;;2.20;85.00;;;;;;5092084;27;20204;-80
2021/01/11 10:59:42;;;;;;;28.17;15.70;;;2.30;85.00;;;;;;5097350;28;20599;-79
2021/01/11 11:02:10;;;;;;;29.77;16.73;;;2.30;84.80;;;;;;5104148;28;20220;-78
2021/01/11 11:04:38;;;;;;;31.60;16.67;;;2.30;84.60;;;;;;5101568;28;20203;-81
2021/01/11 11:07:06;;;;;;;26.50;16.53;;;2.30;84.70;;;;;;5102980;28;20231;-79
2021/01/11 11:09:33;;;;;;;31.67;18.23;;;2.30;84.80;;;;;;5076924;28;20204;-81
2021/01/11 11:12:01;;;;;;;30.47;18.93;;;2.30;84.90;;;;;;5094468;28;20476;-80
2021/01/11 11:14:29;;;;;;;29.47;17.77;;;2.30;85.20;;;;;;5104954;28;20183;-81
2021/01/11 11:16:57;;;;;;;27.23;16.37;;;2.30;85.20;;;;;;5106108;28;20188;-80
2021/01/11 11:19:25;;;;;;;26.80;15.87;;;2.30;84.60;;;;;;5097214;27;20208;-79
2021/01/11 11:21:52;;;;;;;30.50;17.47;;;2.30;84.00;;;;;;5103483;28;20224;-82
2021/01/11 11:24:20;;;;;;;29.87;17.93;;;2.30;84.50;;;;;;5102911;28;20192;-82
2021/01/11 11:26:47;;;;;;;32.80;18.03;;;2.30;84.80;;;;;;5078239;27;20287;-80
2021/01/11 11:29:15;;;;;;;35.60;18.57;;;2.20;84.80;;;;;;5077814;28;20257;-81
2021/01/11 11:31:43;;;;;;;30.63;17.40;;;2.30;84.70;;;;;;5083446;28;20388;-81
2021/01/11 11:34:11;;;;;;;28.63;16.13;;;2.20;84.40;;;;;;5077621;28;20593;-79
2021/01/11 11:36:38;;;;;;;29.47;16.30;;;2.20;84.30;;;;;;5083251;27;20200;-79
2021/01/11 11:39:06;;;;;;;31.17;18.17;;;2.20;84.60;;;;;;5082100;27;20208;-82
2021/01/11 11:41:33;;;;;;;31.77;18.10;;;2.30;84.60;;;;;;5079332;27;20783;-79
2021/01/11 11:44:01;;;;;;;29.33;17.13;;;2.20;84.80;;;;;;5079560;27;20200;-81
2021/01/11 11:46:29;;;;;;;34.27;17.13;;;2.10;84.40;;;;;;5076071;28;20303;-82
2021/01/11 11:48:59;;;;;;;29.60;17.57;;;2.10;84.30;;;;;;5081702;28;20315;-81
2021/01/11 11:51:27;;;;;;;32.53;18.90;;;2.20;84.40;;;;;;5080883;28;20197;-79
2021/01/11 11:53:56;;;;;;;29.27;17.07;;;2.10;84.40;;;;;;5075530;28;21277;-81
2021/01/11 11:56:24;;;;;;;32.73;16.93;;;2.20;84.30;;;;;;5079421;28;20599;-80
2021/01/11 11:58:52;;;;;;;30.43;17.50;;;2.10;84.20;;;;;;5071921;28;20200;-80
2021/01/11 12:01:19;;;;;;;29.53;17.23;;;2.10;84.30;;;;;;5083086;28;20223;-81
2021/01/11 12:03:47;;;;;;;31.87;18.53;;;2.20;84.20;;;;;;5068876;27;20285;-81
2021/01/11 12:06:15;;;;;;;34.23;19.30;;;2.20;84.30;;;;;;5078908;28;20192;-81
2021/01/11 12:08:43;;;;;;;31.83;18.47;;;2.10;84.30;;;;;;5080561;28;20322;-80
2021/01/11 12:11:10;;;;;;;29.90;18.20;;;2.20;84.30;;;;;;5081286;28;20648;-82
2021/01/11 12:13:38;;;;;;;31.70;18.23;;;2.10;84.60;;;;;;5074802;28;20292;-82
2021/01/11 12:16:08;;;;;;;30.30;17.47;;;2.10;84.40;;;;;;5074376;27;20377;-80
2021/01/11 12:18:36;;;;;;;33.03;17.47;;;2.20;84.50;;;;;;5075588;28;20271;-81
2021/01/11 12:21:04;;;;;;;31.93;18.50;;;2.10;84.40;;;;;;5088429;27;20426;-81
2021/01/11 12:23:32;;;;;;;33.30;18.77;;;2.20;84.30;;;;;;5076057;28;20216;-81
2021/01/11 12:26:00;;;;;;;34.20;19.50;;;2.10;84.30;;;;;;5073298;27;20331;-82
2021/01/11 12:28:30;;;;;;;31.77;19.10;;;2.10;84.50;;;;;;5074954;28;20231;-81
2021/01/11 12:31:03;;;;;;;35.00;18.13;;;2.00;84.50;;;;;;5077159;28;20762;-80
2021/01/11 12:33:31;;;;;;;37.07;19.93;;;2.10;84.40;;;;;;5082715;28;20394;-82
2021/01/11 12:35:58;;;;;;;33.87;18.87;;;2.10;84.40;;;;;;5075422;27;20200;-79
2021/01/11 12:38:26;;;;;;;33.20;18.77;;;2.10;84.50;;;;;;5084829;27;20208;-80
2021/01/11 12:40:54;;;;;;;35.50;20.13;;;2.10;84.20;;;;;;5071954;27;20230;-82
2021/01/11 12:43:22;;;;;;;34.00;19.47;;;2.10;84.20;;;;;;5080632;28;20727;-80
2021/01/11 12:46:10;;;;;;;39.47;20.10;;;2.10;84.60;;;;;;5075995;27;20375;-81
2021/01/11 12:48:38;;;;;;;41.17;21.70;;;2.00;84.70;;;;;;5106924;27;20229;-80
2021/01/11 12:51:10;;;;;;;34.87;19.63;;;2.10;84.60;;;;;;5090894;28;20876;-81
2021/01/11 12:53:37;;;;;;;36.57;21.30;;;2.00;84.70;;;;;;5080850;28;20585;-79